Time;durP1;ratioP1;P1;durP2;ratioP2;P2;SDS_P1;SDS_P2;PMS_P1;PMS_P2;Temp;Humidity;BMP_temperature;BMP_pressure;BME280_temperature;BME280_humidity;BME280_pressure;Samples;Min_cycle;Max_cycle;Signal;HPM_P1;HPM_P2
2022/05/27 00:01:40;;;;;;;4.32;1.60;;;;;;;15.41;71.69;96721.41;10410197;28;20224;-77
2022/05/27 00:06:40;;;;;;;2.95;1.20;;;;;;;15.38;71.45;96721.78;10410419;28;20196;-77
2022/05/27 00:11:40;;;;;;;2.70;1.20;;;;;;;15.48;71.15;96699.34;10409827;28;20187;-77
2022/05/27 00:16:41;;;;;;;1.45;1.02;;;;;;;15.47;71.20;96692.44;10409912;28;20275;-77
2022/05/27 00:21:42;;;;;;;7.68;1.60;;;;;;;15.43;71.52;96703.56;10409108;28;20219;-77
2022/05/27 00:26:42;;;;;;;2.83;1.00;;;;;;;15.46;71.39;96697.91;10409283;28;20246;-77
2022/05/27 00:31:42;;;;;;;4.20;1.20;;;;;;;15.43;71.83;96693.81;10407793;28;20288;-77
2022/05/27 00:36:43;;;;;;;2.83;1.23;;;;;;;15.41;71.66;96692.38;10409367;28;20193;-77
2022/05/27 00:41:43;;;;;;;4.20;1.55;;;;;;;15.40;71.92;96680.16;10391323;28;20220;-77
2022/05/27 00:46:44;;;;;;;6.68;1.40;;;;;;;15.46;71.85;96679.41;10408160;28;20203;-77
2022/05/27 00:51:51;;;;;;;1.63;1.30;;;;;;;15.43;71.79;96674.50;10391354;28;20192;-77
2022/05/27 00:56:54;;;;;;;3.00;1.27;;;;;;;15.41;72.45;96673.91;10410461;28;20612;-78
2022/05/27 01:01:55;;;;;;;3.60;1.80;;;;;;;15.49;71.94;96665.84;10414574;28;20702;-77
2022/05/27 01:06:55;;;;;;;3.20;1.45;;;;;;;15.38;72.24;96666.34;10399313;28;20188;-77
2022/05/27 01:12:29;;;;;;;5.30;1.45;;;;;;;15.40;72.78;96673.06;10399178;28;20238;-77
2022/05/27 01:17:49;;;;;;;2.70;1.38;;;;;;;15.34;72.92;96668.53;10416696;28;20208;-77
2022/05/27 01:23:06;;;;;;;3.00;1.35;;;;;;;15.38;72.72;96664.53;10398384;28;20247;-77
2022/05/27 01:28:22;;;;;;;3.78;1.48;;;;;;;15.37;73.06;96662.06;10398546;28;20691;-77
2022/05/27 01:33:36;;;;;;;5.03;1.48;;;;;;;15.34;73.64;96669.38;10398308;28;20185;-78
2022/05/27 01:38:50;;;;;;;2.42;1.48;;;;;;;15.44;73.81;96668.25;10398233;28;20199;-77
2022/05/27 01:43:59;;;;;;;5.93;1.80;;;;;;;15.22;74.17;96665.59;10397750;28;20278;-78
2022/05/27 01:49:18;;;;;;;2.95;1.33;;;;;;;15.25;74.13;96657.28;10398400;28;20220;-77
2022/05/27 01:54:40;;;;;;;3.28;1.55;;;;;;;15.28;74.24;96649.00;10397481;28;20237;-77
2022/05/27 01:59:58;;;;;;;3.85;1.42;;;;;;;15.21;74.27;96653.38;10415052;28;20220;-77
2022/05/27 02:05:11;;;;;;;3.38;1.58;;;;;;;15.21;75.14;96648.09;10414465;28;20200;-78
2022/05/27 02:10:17;;;;;;;3.72;1.50;;;;;;;15.19;75.53;96633.47;10396473;28;20181;-77
2022/05/27 02:15:22;;;;;;;6.30;1.65;;;;;;;15.08;76.04;96643.50;10396790;28;20189;-77
2022/05/27 02:20:28;;;;;;;6.18;1.55;;;;;;;15.16;76.11;96632.03;10396188;28;20583;-77
2022/05/27 02:25:41;;;;;;;6.50;1.50;;;;;;;15.11;76.04;96623.84;10396175;28;20598;-78
2022/05/27 02:30:47;;;;;;;4.82;1.45;;;;;;;15.12;76.03;96633.41;10395939;28;20224;-77
2022/05/27 02:35:49;;;;;;;5.57;1.67;;;;;;;15.08;76.65;96626.84;10395845;28;20189;-78
2022/05/27 02:41:04;;;;;;;6.15;1.73;;;;;;;15.00;77.01;96629.63;10395610;28;20218;-77
2022/05/27 02:46:17;;;;;;;2.88;1.27;;;;;;;15.07;76.48;96628.69;10395538;28;20274;-77
2022/05/27 02:51:30;;;;;;;7.13;1.77;;;;;;;15.01;76.84;96615.41;10378719;28;20214;-77
2022/05/27 02:56:35;;;;;;;3.85;1.55;;;;;;;14.97;76.71;96617.59;10394763;28;20237;-78
2022/05/27 03:01:35;;;;;;;2.53;1.40;;;;;;;15.09;77.24;96617.94;10394237;28;20216;-77
2022/05/27 03:06:43;;;;;;;3.67;1.40;;;;;;;15.08;76.68;96603.91;10409549;28;20193;-77
2022/05/27 03:11:59;;;;;;;5.07;2.00;;;;;;;14.98;77.40;96612.16;10390869;28;20200;-77
2022/05/27 03:17:20;;;;;;;5.72;1.45;;;;;;;15.01;77.71;96608.31;10390488;28;20739;-78
2022/05/27 03:22:44;;;;;;;3.40;1.30;;;;;;;15.00;77.81;96598.78;10388677;28;20724;-78
2022/05/27 03:28:00;;;;;;;4.35;1.55;;;;;;;14.89;77.81;96607.19;10390046;28;20242;-77
2022/05/27 03:33:07;;;;;;;5.22;1.35;;;;;;;14.93;78.15;96616.34;10389744;28;20193;-77
2022/05/27 03:38:14;;;;;;;5.45;1.38;;;;;;;14.92;78.13;96623.44;10407834;28;20200;-77
2022/05/27 03:43:15;;;;;;;2.65;1.20;;;;;;;14.87;78.92;96615.28;10407244;28;20281;-77
2022/05/27 03:48:16;;;;;;;4.82;1.50;;;;;;;14.84;78.48;96591.91;10407458;28;20197;-77
2022/05/27 03:53:17;;;;;;;3.47;1.38;;;;;;;14.83;78.51;96592.09;10388915;28;20604;-77
2022/05/27 03:58:17;;;;;;;4.70;1.67;;;;;;;14.96;78.27;96594.88;10406578;28;20192;-78
2022/05/27 04:03:18;;;;;;;3.13;1.70;;;;;;;14.83;78.64;96597.38;10408706;28;20266;-78
2022/05/27 04:08:18;;;;;;;2.47;1.40;;;;;;;14.87;79.03;96583.63;10410515;28;20663;-77
2022/05/27 04:13:18;;;;;;;3.00;1.50;;;;;;;14.67;79.87;96572.03;10410487;28;20687;-77
2022/05/27 04:18:19;;;;;;;2.45;1.50;;;;;;;14.63;79.91;96575.03;10409725;28;20661;-77
2022/05/27 04:23:19;;;;;;;5.97;1.98;;;;;;;14.73;80.62;96582.66;10392574;28;20575;-77
2022/05/27 04:28:19;;;;;;;4.10;1.50;;;;;;;14.59;81.38;96586.94;10409464;28;20689;-77
2022/05/27 04:33:20;;;;;;;2.22;1.27;;;;;;;14.73;81.38;96585.31;10409820;28;20195;-78
2022/05/27 04:38:21;;;;;;;6.63;1.85;;;;;;;14.58;82.54;96587.13;10409545;28;20200;-78
2022/05/27 04:43:22;;;;;;;10.52;2.03;;;;;;;14.49;84.22;96583.78;10409552;28;20246;-77
2022/05/27 04:48:23;;;;;;;2.58;1.80;;;;;;;14.21;89.53;96609.94;10409747;28;20184;-77
2022/05/27 04:53:23;;;;;;;4.28;2.08;;;;;;;13.79;98.43;96598.22;10409099;28;20239;-76
2022/05/27 04:58:24;;;;;;;10.48;2.25;;;;;;;13.46;100.00;96611.66;10409526;28;20192;-77
2022/05/27 05:03:24;;;;;;;6.32;2.10;;;;;;;13.47;100.00;96594.88;10409037;28;20319;-76
2022/05/27 05:08:34;;;;;;;4.90;2.40;;;;;;;13.43;100.00;96588.34;10409297;28;20196;-76
2022/05/27 05:13:34;;;;;;;4.60;1.90;;;;;;;13.36;100.00;96585.59;10409363;28;20189;-76
2022/05/27 05:18:35;;;;;;;9.13;2.67;;;;;;;13.33;100.00;96586.75;10408620;28;20237;-75
2022/05/27 05:23:35;;;;;;;9.77;2.75;;;;;;;13.17;100.00;96586.88;10409077;28;20238;-76
2022/05/27 05:28:36;;;;;;;5.45;2.50;;;;;;;13.02;100.00;96598.13;10408447;28;20199;-75
2022/05/27 05:33:37;;;;;;;4.93;2.50;;;;;;;12.98;100.00;96596.03;10409010;28;20182;-75
2022/05/27 05:38:38;;;;;;;4.90;2.85;;;;;;;12.76;100.00;96598.47;10408784;28;20189;-76
2022/05/27 05:43:38;;;;;;;6.97;2.70;;;;;;;12.77;100.00;96592.22;10394315;28;20216;-76
2022/05/27 05:48:39;;;;;;;10.45;2.70;;;;;;;12.73;100.00;96590.94;10415983;28;20196;-76
2022/05/27 05:53:39;;;;;;;7.55;2.50;;;;;;;12.63;100.00;96595.56;10415143;28;20319;-76
2022/05/27 05:58:39;;;;;;;7.38;3.13;;;;;;;12.59;100.00;96594.31;10415448;28;20262;-76
2022/05/27 06:03:40;;;;;;;6.45;2.90;;;;;;;12.46;100.00;96597.47;10415252;28;20225;-76
2022/05/27 06:08:40;;;;;;;6.20;2.97;;;;;;;12.35;100.00;96596.03;10414964;28;20254;-76
2022/05/27 06:13:41;;;;;;;6.47;3.75;;;;;;;12.25;100.00;96582.28;10414661;28;20283;-77
2022/05/27 06:18:41;;;;;;;8.13;2.90;;;;;;;12.34;100.00;96590.94;10414336;28;20203;-76
2022/05/27 06:23:42;;;;;;;8.30;3.03;;;;;;;12.41;100.00;96576.97;10414365;28;20312;-76
2022/05/27 06:39:21;;;;;;;7.75;2.80;;;;;;;12.84;100.00;96577.38;10413585;28;20193;-76
2022/05/27 06:44:21;;;;;;;7.20;2.83;;;;;;;12.84;100.00;96584.47;10413427;28;20696;-77
2022/05/27 06:49:21;;;;;;;11.40;3.20;;;;;;;12.82;100.00;96592.50;10413814;28;20231;-76
2022/05/27 06:54:22;;;;;;;6.28;3.30;;;;;;;12.94;100.00;96592.09;10412391;28;20236;-77
2022/05/27 06:59:23;;;;;;;7.63;2.80;;;;;;;12.90;100.00;96596.09;10413049;28;20203;-77
2022/05/27 07:04:23;;;;;;;4.93;2.70;;;;;;;13.05;100.00;96599.63;10412934;28;20690;-77
2022/05/27 07:09:25;;;;;;;6.63;2.90;;;;;;;13.17;100.00;96595.59;10412461;28;20223;-77
2022/05/27 07:14:25;;;;;;;4.57;2.70;;;;;;;13.15;100.00;96597.53;10412768;28;20184;-77
2022/05/27 07:19:25;;;;;;;9.38;3.58;;;;;;;12.91;100.00;96613.50;10394061;28;20201;-76
2022/05/27 07:24:26;;;;;;;5.68;3.25;;;;;;;12.87;100.00;96615.66;10412305;28;20203;-76
2022/05/27 07:29:26;;;;;;;9.20;4.15;;;;;;;12.77;100.00;96618.50;10393841;28;20197;-76
2022/05/27 07:34:27;;;;;;;6.72;4.53;;;;;;;12.65;100.00;96615.44;10411691;28;20189;-77
2022/05/27 07:39:27;;;;;;;4.95;4.00;;;;;;;12.61;100.00;96615.97;10410302;28;20185;-76
2022/05/27 07:44:28;;;;;;;10.18;5.60;;;;;;;12.31;100.00;96618.38;10410965;28;20279;-76
2022/05/27 07:49:28;;;;;;;8.77;5.32;;;;;;;12.25;100.00;96622.50;10410081;28;20203;-75
2022/05/27 07:54:29;;;;;;;8.93;4.82;;;;;;;12.15;100.00;96621.88;10410609;28;20236;-75
2022/05/27 07:59:29;;;;;;;13.18;5.60;;;;;;;12.07;100.00;96627.16;10410735;28;20200;-75
2022/05/27 08:04:30;;;;;;;6.70;4.15;;;;;;;12.17;100.00;96627.78;10410083;28;20208;-75
2022/05/27 08:09:31;;;;;;;6.00;3.95;;;;;;;12.27;100.00;96628.41;10410011;28;20657;-75
2022/05/27 08:14:32;;;;;;;5.03;3.90;;;;;;;12.30;100.00;96632.50;10410413;28;20692;-75
2022/05/27 08:19:32;;;;;;;3.67;1.20;;;;;;;11.63;100.00;96674.75;10409946;28;20228;-75
2022/05/27 08:24:33;;;;;;;2.13;1.20;;;;;;;10.45;100.00;96676.44;10409791;28;20279;-75
2022/05/27 08:29:33;;;;;;;1.70;1.10;;;;;;;9.93;100.00;96692.13;10409950;28;20253;-76
2022/05/27 08:39:58;;;;;;;2.97;1.50;;;;;;;10.04;100.00;96691.88;10381179;28;20275;-76
2022/05/27 08:45:26;;;;;;;1.30;1.20;;;;;;;10.21;100.00;96691.97;10409999;28;20287;-75
2022/05/27 08:50:32;;;;;;;2.07;1.63;;;;;;;10.34;100.00;96687.19;10392343;28;20184;-76
2022/05/27 09:01:05;;;;;;;3.90;1.60;;;;;;;10.10;100.00;96680.78;10394475;28;20225;-75
2022/05/27 09:06:05;;;;;;;4.60;1.60;;;;;;;9.86;100.00;96683.25;10391908;28;20193;-75
2022/05/27 09:11:12;;;;;;;3.03;1.90;;;;;;;10.17;100.00;96692.28;10409325;28;20192;-75
2022/05/27 09:16:17;;;;;;;3.87;2.10;;;;;;;10.60;100.00;96692.38;10392043;28;20204;-76
2022/05/27 09:21:31;;;;;;;1.87;1.67;;;;;;;10.51;100.00;96688.09;10399196;28;20224;-76
2022/05/27 09:26:43;;;;;;;1.67;1.58;;;;;;;10.79;100.00;96680.00;10398932;28;20197;-76
2022/05/27 09:31:49;;;;;;;2.65;1.88;;;;;;;10.52;100.00;96666.97;10416569;28;20189;-76
2022/05/27 09:36:53;;;;;;;3.47;1.87;;;;;;;10.63;100.00;96681.59;10398792;28;20196;-75
2022/05/27 09:42:31;;;;;;;5.13;2.40;;;;;;;10.50;100.00;96671.53;10416260;28;20312;-76
2022/05/27 09:47:34;;;;;;;4.60;2.20;;;;;;;10.44;100.00;96682.63;10416099;28;20250;-76
2022/05/27 09:52:39;;;;;;;4.47;2.80;;;;;;;10.34;100.00;96685.38;10398166;28;20185;-76
2022/05/27 09:57:54;;;;;;;4.20;2.60;;;;;;;10.29;100.00;96684.16;10397813;28;20720;-76
2022/05/27 10:02:54;;;;;;;4.00;3.37;;;;;;;10.65;100.00;96682.25;10415841;28;20574;-76
2022/05/27 10:07:57;;;;;;;4.30;2.07;;;;;;;10.91;100.00;96698.88;10414852;28;20188;-75
2022/05/27 10:13:13;;;;;;;2.93;1.80;;;;;;;10.76;100.00;96699.47;10415305;28;20196;-76
2022/05/27 10:18:22;;;;;;;2.67;1.80;;;;;;;10.41;100.00;96703.09;10414748;28;20196;-75
2022/05/27 10:23:26;;;;;;;3.13;1.93;;;;;;;10.61;100.00;96693.19;10415063;28;20248;-76
2022/05/27 10:28:31;;;;;;;4.87;2.70;;;;;;;10.82;100.00;96684.94;10413560;28;20752;-76
2022/05/27 10:33:39;;;;;;;5.47;3.07;;;;;;;12.19;100.00;96677.50;10396556;28;20263;-76
2022/05/27 10:38:51;;;;;;;4.20;2.47;;;;;;;12.01;100.00;96659.34;10413766;28;20247;-77
2022/05/27 10:44:07;;;;;;;6.78;2.40;;;;;;;11.68;100.00;96660.13;10396365;28;20221;-76
2022/05/27 10:49:23;;;;;;;4.63;2.50;;;;;;;11.15;100.00;96661.41;10396163;28;20196;-77
2022/05/27 10:54:29;;;;;;;4.27;2.67;;;;;;;11.43;100.00;96673.25;10395758;28;20236;-78
2022/05/27 11:05:41;;;;;;;5.30;2.55;;;;;;;11.22;100.00;96655.38;10384071;28;20300;-77
2022/05/27 11:10:49;;;;;;;3.93;3.07;;;;;;;11.00;100.00;96646.31;10412512;28;20211;-76
2022/05/27 11:16:01;;;;;;;4.10;2.80;;;;;;;10.87;100.00;96641.56;10394903;28;20293;-76
2022/05/27 11:21:19;;;;;;;3.43;2.50;;;;;;;11.08;100.00;96629.78;10394510;28;20235;-76
2022/05/27 11:26:36;;;;;;;3.58;3.05;;;;;;;11.17;100.00;96641.09;10394553;28;20200;-75
2022/05/27 11:31:55;;;;;;;4.00;2.40;;;;;;;11.34;100.00;96629.63;10377306;28;20192;-75
2022/05/27 11:37:13;;;;;;;4.65;3.17;;;;;;;11.69;100.00;96619.81;10394746;28;20544;-76
2022/05/27 11:42:24;;;;;;;4.95;2.92;;;;;;;11.88;100.00;96625.66;10410554;28;20231;-76
2022/05/27 11:47:39;;;;;;;4.53;3.03;;;;;;;12.12;100.00;96620.41;10411481;28;20208;-76
2022/05/27 11:52:56;;;;;;;3.25;2.92;;;;;;;11.99;100.00;96620.13;10393539;28;20192;-78
2022/05/27 11:58:06;;;;;;;4.13;2.63;;;;;;;11.72;100.00;96631.78;10405088;28;20283;-78
2022/05/27 12:03:22;;;;;;;5.57;3.80;;;;;;;11.47;100.00;96631.78;10368289;28;20225;-78
2022/05/27 12:08:36;;;;;;;5.15;4.07;;;;;;;11.55;100.00;96629.16;10351999;28;20237;-77
2022/05/27 12:13:53;;;;;;;4.90;3.20;;;;;;;11.99;100.00;96621.91;10369328;28;20193;-78
2022/05/27 12:18:59;;;;;;;5.28;3.22;;;;;;;11.95;100.00;96616.19;10368339;28;20185;-77
2022/05/27 12:24:18;;;;;;;4.45;2.83;;;;;;;11.82;100.00;96605.34;10369161;28;20559;-78
2022/05/27 12:29:21;;;;;;;6.90;3.42;;;;;;;11.48;100.00;96606.38;10367212;28;20197;-78
2022/05/27 12:34:28;;;;;;;5.30;3.50;;;;;;;11.67;100.00;96585.03;10367885;28;20240;-78
2022/05/27 12:39:29;;;;;;;5.80;3.17;;;;;;;11.48;100.00;96585.38;10369066;28;20665;-78
2022/05/27 12:44:30;;;;;;;5.57;2.70;;;;;;;11.40;100.00;96566.03;10368384;28;20705;-77
2022/05/27 12:49:38;;;;;;;4.43;2.37;;;;;;;11.41;100.00;96540.66;10368921;28;20193;-77
2022/05/27 12:54:41;;;;;;;4.45;2.85;;;;;;;12.18;100.00;96560.31;10374535;28;20248;-78
2022/05/27 13:05:07;;;;;;;5.95;2.38;;;;;;;12.54;100.00;96560.66;10376549;28;20192;-78
2022/05/27 13:10:16;;;;;;;4.45;2.95;;;;;;;13.25;100.00;96564.97;10375220;28;20555;-78
2022/05/27 13:15:53;;;;;;;3.45;2.17;;;;;;;13.06;100.00;96548.63;10376199;28;20193;-78
2022/05/27 13:21:08;;;;;;;6.43;2.67;;;;;;;13.78;100.00;96536.81;10375073;28;20417;-79
2022/05/27 13:26:13;;;;;;;4.88;2.95;;;;;;;14.57;100.00;96525.66;10375289;28;20279;-79
2022/05/27 13:31:20;;;;;;;2.85;2.28;;;;;;;14.81;100.00;96513.19;10374226;28;20201;-79
2022/05/27 13:36:26;;;;;;;4.50;2.17;;;;;;;16.45;100.00;96492.69;10375526;28;20196;-80
2022/05/27 13:41:30;;;;;;;3.40;2.03;;;;;;;14.51;100.00;96510.59;10375176;28;20217;-80
2022/05/27 13:46:32;;;;;;;3.78;2.50;;;;;;;13.98;98.49;96488.88;10373882;28;20751;-80
2022/05/27 13:51:42;;;;;;;2.40;2.20;;;;;;;14.26;100.00;96497.75;10357234;28;20215;-79
2022/05/27 13:56:45;;;;;;;6.40;2.47;;;;;;;15.21;100.00;96481.84;10374429;28;20273;-79
2022/05/27 14:01:55;;;;;;;4.80;2.65;;;;;;;14.31;100.00;96494.56;10372356;28;20228;-79
2022/05/27 14:06:56;;;;;;;3.20;2.50;;;;;;;14.32;100.00;96487.47;10372799;28;20213;-78
2022/05/27 14:12:05;;;;;;;2.58;1.65;;;;;;;16.53;93.59;96460.78;10373834;28;20218;-78
2022/05/27 14:17:12;;;;;;;3.33;2.15;;;;;;;17.25;84.99;96431.94;10374072;28;20255;-78
2022/05/27 14:27:47;;;;;;;4.10;2.33;;;;;;;15.80;94.57;96471.91;10371985;28;20284;-78
2022/05/27 14:32:48;;;;;;;4.35;1.98;;;;;;;17.97;82.19;96408.94;10371991;28;20194;-79
2022/05/27 14:38:00;;;;;;;9.07;2.10;;;;;;;18.47;77.06;96394.22;10371708;28;20563;-78
2022/05/27 14:43:01;;;;;;;6.97;2.50;;;;;;;17.91;75.01;96391.22;10355252;28;20255;-76
2022/05/27 14:48:18;;;;;;;3.58;1.70;;;;;;;18.86;67.08;96292.25;10372589;28;20723;-75
2022/05/27 14:53:19;;;;;;;2.67;1.50;;;;;;;18.35;66.26;96303.91;10371922;28;20298;-77
2022/05/27 14:58:33;;;;;;;3.25;1.40;;;;;;;19.38;65.31;96307.03;10371030;28;20192;-77
2022/05/27 15:03:39;;;;;;;4.70;1.58;;;;;;;19.17;60.59;96205.56;10354484;28;20217;-77
2022/05/27 15:08:40;;;;;;;3.30;1.50;;;;;;;20.25;60.44;96236.75;10371858;28;20259;-76
2022/05/27 15:13:48;;;;;;;5.28;2.10;;;;;;;19.46;59.70;96236.84;10354218;28;20589;-77
2022/05/27 15:19:04;;;;;;;5.15;1.30;;;;;;;20.20;56.81;96208.19;10370985;28;20193;-76
2022/05/27 15:24:09;;;;;;;4.60;1.52;;;;;;;21.82;49.20;96090.22;10370810;28;20274;-77
2022/05/27 15:34:36;;;;;;;2.13;1.23;;;;;;;20.07;49.30;96054.16;10370771;28;20192;-77
2022/05/27 15:39:37;;;;;;;5.82;1.40;;;;;;;20.82;49.00;96073.81;10352775;28;20308;-76
2022/05/27 15:44:38;;;;;;;4.05;1.55;;;;;;;19.97;50.75;96110.59;10370567;28;20220;-76
2022/05/27 15:49:38;;;;;;;3.58;1.35;;;;;;;19.42;52.80;96149.63;10370263;28;20189;-77
2022/05/27 15:54:38;;;;;;;8.50;1.60;;;;;;;19.61;51.76;96120.34;10368750;28;20259;-77
2022/05/27 15:59:39;;;;;;;5.57;1.50;;;;;;;19.81;50.30;96101.44;10369912;28;20197;-77
2022/05/27 16:04:39;;;;;;;5.32;1.58;;;;;;;19.11;49.27;96054.28;10369774;28;20225;-76
2022/05/27 16:09:40;;;;;;;6.88;1.48;;;;;;;19.63;46.75;96024.44;10369376;28;20295;-77
2022/05/27 16:14:40;;;;;;;4.35;1.38;;;;;;;18.54;49.76;96072.16;10369771;28;20196;-77
2022/05/27 16:19:41;;;;;;;6.57;1.58;;;;;;;18.07;50.96;96084.28;10369350;28;20189;-77
2022/05/27 16:24:41;;;;;;;3.10;1.13;;;;;;;17.20;52.05;96100.88;10369177;28;20362;-77
2022/05/27 16:29:42;;;;;;;3.65;1.58;;;;;;;17.27;51.83;96104.28;10368800;28;20201;-77
2022/05/27 16:34:43;;;;;;;4.20;1.60;;;;;;;16.85;53.31;96131.13;10367752;28;20193;-77
2022/05/27 16:39:43;;;;;;;7.55;1.90;;;;;;;16.39;55.11;96180.50;10369123;28;20197;-77
2022/05/27 16:44:44;;;;;;;4.15;1.70;;;;;;;16.17;55.66;96189.69;10368928;28;20227;-77
2022/05/27 16:49:45;;;;;;;10.68;1.48;;;;;;;15.94;56.96;96211.22;10367516;28;20203;-77
2022/05/27 16:54:45;;;;;;;6.55;1.88;;;;;;;15.73;60.80;96309.91;10367228;28;20635;-77
2022/05/27 16:59:46;;;;;;;10.88;1.50;;;;;;;15.51;62.75;96341.72;10367362;28;20328;-77
2022/05/27 17:04:48;;;;;;;5.18;1.52;;;;;;;15.60;62.25;96329.97;10367294;28;20201;-77
2022/05/27 17:09:49;;;;;;;7.65;1.73;;;;;;;15.84;62.38;96341.06;10368024;28;20268;-77
2022/05/27 17:14:49;;;;;;;9.25;1.80;;;;;;;15.82;62.81;96340.47;10368614;28;20185;-77
2022/05/27 17:19:50;;;;;;;6.22;1.88;;;;;;;15.58;63.48;96353.13;10367409;28;20204;-77
2022/05/27 17:24:50;;;;;;;6.20;2.00;;;;;;;15.42;63.91;96364.03;10366437;28;20227;-77
2022/05/27 17:29:50;;;;;;;6.93;1.92;;;;;;;15.26;64.88;96381.00;10367692;28;20193;-77
2022/05/27 17:34:51;;;;;;;4.72;2.00;;;;;;;15.12;65.07;96374.81;10366366;28;20244;-77
2022/05/27 17:39:51;;;;;;;8.43;1.98;;;;;;;14.80;64.94;96383.13;10371562;28;20225;-76
2022/05/27 17:44:52;;;;;;;8.25;1.95;;;;;;;14.49;66.94;96422.19;10374745;28;20217;-76
2022/05/27 17:55:11;;;;;;;7.80;1.92;;;;;;;13.93;68.14;96433.31;10373245;28;20244;-77
2022/05/27 18:00:12;;;;;;;8.13;2.00;;;;;;;13.62;68.29;96431.72;10360040;28;20271;-76
2022/05/27 18:05:14;;;;;;;8.48;2.03;;;;;;;13.43;69.01;96454.97;10414568;28;20532;-76
2022/05/27 18:10:14;;;;;;;7.78;1.65;;;;;;;13.27;70.77;96476.16;10414295;28;20216;-76
2022/05/27 18:15:16;;;;;;;7.38;1.95;;;;;;;13.06;71.58;96496.03;10414102;28;20211;-76
2022/05/27 18:20:17;;;;;;;9.73;1.73;;;;;;;12.92;72.42;96502.88;10413687;28;20703;-77
2022/05/27 18:25:19;;;;;;;9.60;2.20;;;;;;;12.92;71.33;96481.84;10413592;28;20193;-76
2022/05/27 18:30:20;;;;;;;8.32;1.73;;;;;;;12.79;70.30;96471.94;10414783;28;20187;-76
2022/05/27 18:35:23;;;;;;;5.93;1.60;;;;;;;12.42;73.20;96504.22;10414232;28;20189;-76
2022/05/27 18:40:25;;;;;;;5.60;1.70;;;;;;;12.15;74.60;96519.47;10413787;28;20584;-76
2022/05/27 18:45:26;;;;;;;7.60;1.83;;;;;;;11.94;76.40;96543.66;10414119;28;20223;-76
2022/05/27 18:50:26;;;;;;;7.53;1.88;;;;;;;11.71;77.74;96546.97;10395315;28;20271;-77
2022/05/27 18:55:27;;;;;;;7.97;2.00;;;;;;;11.42;82.54;96568.50;10395710;28;20237;-77
2022/05/27 19:00:27;;;;;;;4.32;1.90;;;;;;;11.17;81.31;96534.41;10412739;28;20752;-77
2022/05/27 19:05:27;;;;;;;7.25;2.22;;;;;;;10.38;87.50;96567.22;10413251;28;20676;-76
2022/05/27 19:10:28;;;;;;;10.55;2.47;;;;;;;9.87;92.54;96567.16;10412886;28;20254;-76
2022/05/27 19:15:30;;;;;;;8.63;2.30;;;;;;;9.60;97.33;96571.56;10394956;28;20184;-76
2022/05/27 19:25:49;;;;;;;5.70;2.10;;;;;;;9.39;100.00;96583.19;10411936;28;20230;-77
2022/05/27 19:30:49;;;;;;;13.77;2.80;;;;;;;9.05;100.00;96580.44;10412207;28;20188;-77
2022/05/27 19:35:50;;;;;;;12.63;2.07;;;;;;;8.68;100.00;96594.47;10411834;28;20184;-76
2022/05/27 19:40:50;;;;;;;7.87;1.80;;;;;;;8.45;100.00;96592.25;10394235;28;20274;-77
2022/05/27 19:45:50;;;;;;;7.77;2.43;;;;;;;8.13;100.00;96593.50;10393920;28;20200;-77
2022/05/27 19:50:52;;;;;;;8.50;2.50;;;;;;;7.78;100.00;96597.63;10411281;28;20279;-76
2022/05/27 19:55:52;;;;;;;7.60;2.50;;;;;;;7.88;100.00;96602.78;10411127;28;20259;-76
2022/05/27 20:00:52;;;;;;;4.07;2.27;;;;;;;7.67;100.00;96600.38;10410118;28;20224;-76
2022/05/27 20:05:53;;;;;;;12.27;2.67;;;;;;;7.48;100.00;96603.84;10411142;28;20271;-76
2022/05/27 20:11:05;;;;;;;8.37;2.43;;;;;;;7.36;100.00;96600.56;10410650;28;20343;-77
2022/05/27 20:16:05;;;;;;;9.90;2.80;;;;;;;7.21;100.00;96607.16;10410875;28;20200;-76
2022/05/27 20:21:06;;;;;;;10.17;3.50;;;;;;;7.21;100.00;96600.16;10410192;28;20227;-76
2022/05/27 20:26:06;;;;;;;9.00;2.70;;;;;;;7.21;100.00;96609.78;10392559;28;20260;-76
2022/05/27 20:31:07;;;;;;;7.67;2.70;;;;;;;7.01;100.00;96606.34;10410050;28;20319;-76
2022/05/27 20:41:26;;;;;;;8.53;3.10;;;;;;;6.83;100.00;96604.44;10409613;28;20217;-76
2022/05/27 20:46:27;;;;;;;12.57;3.90;;;;;;;6.65;100.00;96606.88;10409783;28;20200;-77
2022/05/27 20:51:30;;;;;;;13.10;3.40;;;;;;;6.69;100.00;96613.47;10409693;28;20238;-77
2022/05/27 20:56:32;;;;;;;11.80;4.10;;;;;;;6.52;100.00;96614.09;10409568;28;20237;-76
2022/05/27 21:01:32;;;;;;;5.97;3.20;;;;;;;6.48;100.00;96612.72;10409593;28;20224;-76
2022/05/27 21:06:33;;;;;;;9.87;3.07;;;;;;;6.52;100.00;96608.91;10391407;28;20185;-76
2022/05/27 21:11:37;;;;;;;11.07;3.40;;;;;;;6.41;100.00;96613.25;10410067;28;20296;-76
2022/05/27 21:16:38;;;;;;;11.03;3.90;;;;;;;6.27;100.00;96616.22;10400079;28;20556;-76
2022/05/27 21:21:41;;;;;;;6.10;3.30;;;;;;;6.30;100.00;96613.34;10416837;28;20362;-76
2022/05/27 21:26:42;;;;;;;11.40;3.57;;;;;;;6.28;100.00;96610.06;10399216;28;20661;-76
2022/05/27 21:31:42;;;;;;;16.83;3.73;;;;;;;6.20;100.00;96610.72;10399025;28;20234;-76
2022/05/27 21:36:44;;;;;;;12.57;3.27;;;;;;;6.17;100.00;96617.97;10416662;28;20196;-76
2022/05/27 21:41:45;;;;;;;10.90;3.37;;;;;;;6.10;100.00;96617.66;10398416;28;20251;-76
2022/05/27 21:46:47;;;;;;;8.53;4.00;;;;;;;6.00;100.00;96622.84;10416679;28;20646;-76
2022/05/27 21:51:47;;;;;;;8.83;3.90;;;;;;;6.10;100.00;96614.25;10414900;28;20288;-76
2022/05/27 21:56:47;;;;;;;9.17;3.23;;;;;;;6.23;100.00;96617.44;10415519;28;20267;-77
2022/05/27 22:01:48;;;;;;;11.33;3.67;;;;;;;6.31;100.00;96607.22;10414867;28;20224;-76
2022/05/27 22:06:48;;;;;;;14.37;3.63;;;;;;;6.43;100.00;96606.16;10414698;28;20199;-76
2022/05/27 22:17:07;;;;;;;6.13;3.10;;;;;;;6.54;100.00;96607.81;10414595;28;20192;-77
2022/05/27 22:22:08;;;;;;;10.90;3.00;;;;;;;6.50;100.00;96610.81;10414085;28;20727;-77
2022/05/27 22:27:08;;;;;;;7.60;2.80;;;;;;;6.52;100.00;96601.91;10411670;28;20653;-77
2022/05/27 22:32:08;;;;;;;9.53;3.07;;;;;;;6.63;100.00;96605.34;10412777;28;20247;-76
2022/05/27 22:37:09;;;;;;;9.60;2.67;;;;;;;6.67;100.00;96598.94;10413497;28;20192;-77
2022/05/27 22:42:10;;;;;;;7.33;2.80;;;;;;;6.68;100.00;96603.19;10413772;28;20228;-77
2022/05/27 22:47:12;;;;;;;9.33;2.87;;;;;;;6.62;100.00;96598.53;10413334;28;20300;-77
2022/05/27 22:52:12;;;;;;;12.93;3.80;;;;;;;6.24;100.00;96593.88;10395529;28;20280;-76
2022/05/27 22:57:16;;;;;;;9.67;2.73;;;;;;;6.39;100.00;96586.53;10413283;28;21051;-77
2022/05/27 23:02:16;;;;;;;8.77;3.13;;;;;;;6.13;100.00;96601.81;10412491;28;20213;-77
2022/05/27 23:07:17;;;;;;;9.13;3.10;;;;;;;6.37;100.00;96596.28;10412744;28;20188;-77
2022/05/27 23:22:55;;;;;;;8.63;2.57;;;;;;;7.10;100.00;96575.09;10410383;28;20319;-77
2022/05/27 23:27:55;;;;;;;8.63;2.40;;;;;;;7.31;100.00;96569.72;10411680;28;20291;-77
2022/05/27 23:32:56;;;;;;;14.43;2.47;;;;;;;7.43;98.56;96552.16;10411602;28;20184;-77
2022/05/27 23:37:56;;;;;;;5.63;1.50;;;;;;;7.31;97.63;96553.28;10410087;28;20607;-77
2022/05/27 23:42:57;;;;;;;7.60;2.40;;;;;;;7.40;94.98;96539.41;10411309;28;20597;-77
2022/05/27 23:47:58;;;;;;;8.37;1.50;;;;;;;7.25;96.20;96549.44;10410887;28;20203;-77
2022/05/27 23:52:58;;;;;;;8.33;1.73;;;;;;;7.37;93.64;96534.47;10410773;28;20300;-77
2022/05/27 23:57:59;;;;;;;10.70;2.30;;;;;;;7.31;93.31;96530.63;10410363;28;20192;-77
